createdAt,value
2022-09-12T00:01:28.815Z,3.25
2022-09-12T00:03:58.317Z,3.75
2022-09-12T00:06:27.887Z,3.50
2022-09-12T00:08:56.401Z,3.83
2022-09-12T00:11:23.135Z,3.50
2022-09-12T00:13:50.155Z,3.72
2022-09-12T00:16:20.641Z,3.90
2022-09-12T00:18:47.362Z,3.67
2022-09-12T00:21:15.276Z,3.40
2022-09-12T00:23:41.840Z,4.13
2022-09-12T00:26:08.446Z,4.25
2022-09-12T00:28:36.862Z,4.40
2022-09-12T00:31:08.900Z,3.95
2022-09-12T00:33:36.758Z,4.13
2022-09-12T00:36:23.184Z,3.95
2022-09-12T00:38:51.018Z,4.18
2022-09-12T00:41:24.150Z,3.50
2022-09-12T00:43:58.419Z,4.20
2022-09-12T00:46:46.097Z,3.60
2022-09-12T00:49:24.266Z,3.92
2022-09-12T00:52:16.677Z,3.40
2022-09-12T00:54:48.020Z,4.13
2022-09-12T00:57:16.265Z,4.03
2022-09-12T00:59:57.241Z,3.85
2022-09-12T01:02:24.699Z,3.88
2022-09-12T01:04:52.234Z,4.00
2022-09-12T01:07:19.978Z,4.13
2022-09-12T01:09:46.717Z,4.35
2022-09-12T01:12:15.383Z,4.78
2022-09-12T01:14:42.442Z,3.67
2022-09-12T01:17:13.819Z,3.95
2022-09-12T01:20:07.454Z,3.40
2022-09-12T01:23:01.914Z,4.57
2022-09-12T01:25:39.922Z,3.65
2022-09-12T01:28:33.865Z,3.83
2022-09-12T01:31:03.495Z,3.65
2022-09-12T01:33:44.682Z,4.80
2022-09-12T01:36:24.249Z,3.55
2022-09-12T01:38:55.163Z,4.22
2022-09-12T01:41:43.636Z,3.95
2022-09-12T01:44:13.016Z,3.97
2022-09-12T01:46:55.974Z,3.30
2022-09-12T01:49:41.276Z,3.75
2022-09-12T01:52:15.632Z,3.67
2022-09-12T01:54:49.373Z,3.17
2022-09-12T01:57:30.021Z,4.50
2022-09-12T02:00:03.773Z,3.25
2022-09-12T02:02:38.587Z,3.17
2022-09-12T02:05:14.747Z,3.88
2022-09-12T02:07:51.143Z,4.13
2022-09-12T02:10:22.552Z,4.03
2022-09-12T02:13:23.271Z,3.95
2022-09-12T02:15:55.437Z,3.30
2022-09-12T02:18:24.575Z,3.47
2022-09-12T02:20:51.832Z,4.05
2022-09-12T02:23:25.297Z,4.85
2022-09-12T02:25:56.257Z,4.07
2022-09-12T02:28:43.276Z,3.45
2022-09-12T02:31:09.707Z,3.70
2022-09-12T02:36:15.532Z,4.80
2022-09-12T02:38:46.866Z,3.55
2022-09-12T02:41:17.639Z,3.67
2022-09-12T02:43:44.227Z,3.95
2022-09-12T02:46:18.020Z,3.13
2022-09-12T02:48:44.648Z,3.25
2022-09-12T02:51:11.619Z,4.47
2022-09-12T02:53:39.122Z,4.13
2022-09-12T02:56:11.215Z,3.42
2022-09-12T02:58:37.882Z,4.90
2022-09-12T03:01:34.740Z,4.80
2022-09-12T03:04:19.536Z,3.88
2022-09-12T03:07:02.406Z,3.75
2022-09-12T03:09:47.168Z,3.60
2022-09-12T03:12:39.642Z,4.07
2022-09-12T03:15:12.424Z,4.43
2022-09-12T03:18:05.440Z,3.30
2022-09-12T03:20:46.020Z,3.25
2022-09-12T03:23:26.005Z,3.67
2022-09-12T03:26:01.665Z,3.45
2022-09-12T03:28:29.211Z,4.07
2022-09-12T03:30:56.633Z,4.05
2022-09-12T03:33:25.845Z,3.60
2022-09-12T03:35:53.309Z,4.03
2022-09-12T03:38:20.135Z,3.72
2022-09-12T03:40:49.330Z,3.92
2022-09-12T03:43:18.032Z,4.10
2022-09-12T03:45:44.587Z,3.50
2022-09-12T03:48:11.086Z,3.08
2022-09-12T03:53:04.251Z,3.40
2022-09-12T03:55:31.222Z,3.33
2022-09-12T03:57:57.808Z,3.90
2022-09-12T04:00:24.816Z,3.83
2022-09-12T04:02:57.798Z,4.35
2022-09-12T04:05:25.497Z,3.58
2022-09-12T04:07:52.529Z,3.65
2022-09-12T04:10:19.266Z,3.13
2022-09-12T04:12:45.790Z,3.35
2022-09-12T04:17:39.946Z,3.47
2022-09-12T04:20:07.017Z,3.78
2022-09-12T04:22:33.802Z,3.70
2022-09-12T04:25:00.344Z,4.22
2022-09-12T04:29:55.375Z,4.72
2022-09-12T04:32:22.495Z,3.92
2022-09-12T04:34:49.243Z,3.58
2022-09-12T04:37:16.930Z,3.70
2022-09-12T04:39:43.432Z,4.22
2022-09-12T04:44:36.494Z,3.55
2022-09-12T04:49:29.967Z,3.60
2022-09-12T04:54:23.024Z,4.03
2022-09-12T04:56:50.740Z,3.90
2022-09-12T04:59:19.831Z,4.10
2022-09-12T05:01:46.553Z,4.22
2022-09-12T05:04:13.815Z,4.53
2022-09-12T05:06:41.806Z,4.25
2022-09-12T05:09:11.402Z,4.78
2022-09-12T05:12:03.698Z,4.90
2022-09-12T05:14:26.708Z,4.95
2022-09-12T05:19:19.756Z,4.00
2022-09-12T05:24:12.760Z,4.15
2022-09-12T05:29:07.187Z,4.88
2022-09-12T05:31:34.783Z,4.57
2022-09-12T05:34:02.787Z,4.60
2022-09-12T05:36:30.537Z,5.38
2022-09-12T05:38:57.743Z,4.25
2022-09-12T05:41:26.818Z,4.82
2022-09-12T05:43:55.187Z,5.22
2022-09-12T05:46:24.052Z,5.18
2022-09-12T05:48:55.613Z,4.47
2022-09-12T05:51:28.293Z,3.90
2022-09-12T05:53:57.527Z,3.92
2022-09-12T05:56:27.461Z,4.22
2022-09-12T05:59:02.570Z,5.32
2022-09-12T06:01:31.032Z,5.07
2022-09-12T06:04:00.961Z,5.65
2022-09-12T06:06:29.781Z,5.70
2022-09-12T06:08:58.940Z,5.70
2022-09-12T06:11:28.916Z,5.50
2022-09-12T06:13:56.893Z,6.90
2022-09-12T06:16:26.247Z,4.97
2022-09-12T06:18:55.339Z,5.45
2022-09-12T06:21:22.748Z,5.90
2022-09-12T06:23:50.111Z,6.15
2022-09-12T06:26:18.558Z,4.82
2022-09-12T06:28:45.473Z,7.28
2022-09-12T06:31:18.668Z,5.63
2022-09-12T06:33:47.933Z,5.22
2022-09-12T06:36:17.389Z,5.28
2022-09-12T06:38:44.514Z,6.72
2022-09-12T06:41:12.542Z,5.75
2022-09-12T06:43:40.692Z,6.00
2022-09-12T06:46:07.903Z,6.20
2022-09-12T06:48:39.570Z,5.63
2022-09-12T06:51:13.557Z,6.05
2022-09-12T06:53:41.296Z,5.55
2022-09-12T06:56:12.273Z,6.72
2022-09-12T06:58:39.144Z,6.10
2022-09-12T07:01:07.093Z,5.88
2022-09-12T07:03:34.599Z,6.85
2022-09-12T07:06:06.493Z,5.97
2022-09-12T07:08:35.140Z,5.82
2022-09-12T07:11:11.184Z,5.65
2022-09-12T07:13:38.807Z,5.55
2022-09-12T07:16:06.130Z,5.85
2022-09-12T07:18:34.409Z,5.93
2022-09-12T07:21:02.408Z,5.45
2022-09-12T07:23:30.000Z,5.25
2022-09-12T07:25:58.732Z,5.28
2022-09-12T07:28:26.742Z,5.57
2022-09-12T07:30:54.147Z,5.30
2022-09-12T07:33:22.366Z,4.90
2022-09-12T07:35:49.690Z,5.20
2022-09-12T07:38:17.119Z,5.45
2022-09-12T07:40:44.016Z,4.70
2022-09-12T07:43:10.523Z,5.07
2022-09-12T07:48:03.983Z,4.78
2022-09-12T07:50:30.436Z,6.18
2022-09-12T07:55:24.007Z,4.78
2022-09-12T07:57:53.260Z,4.53
2022-09-12T08:00:19.895Z,4.78
2022-09-12T08:02:51.367Z,4.78
2022-09-12T08:05:18.605Z,4.75
2022-09-12T08:07:45.097Z,4.70
2022-09-12T08:12:38.105Z,3.90
2022-09-12T08:15:04.882Z,4.40
2022-09-12T08:17:31.385Z,4.13
2022-09-12T08:19:57.894Z,4.50
2022-09-12T08:22:24.508Z,5.10
2022-09-12T08:24:51.202Z,4.20
2022-09-12T08:27:17.731Z,4.05
2022-09-12T08:29:44.312Z,4.22
2022-09-12T08:32:10.892Z,4.90
2022-09-12T08:34:37.370Z,5.38
2022-09-12T08:37:04.608Z,4.75
2022-09-12T08:39:32.758Z,5.03
2022-09-12T08:42:06.788Z,4.55
2022-09-12T08:44:48.190Z,3.78
2022-09-12T08:47:22.022Z,3.63
2022-09-12T08:49:51.720Z,4.50
2022-09-12T08:52:30.969Z,3.42
2022-09-12T08:54:57.719Z,3.15
2022-09-12T08:57:27.033Z,3.53
2022-09-12T08:59:54.122Z,3.97
2022-09-12T09:02:53.137Z,3.40
2022-09-12T09:05:46.002Z,3.88
2022-09-12T09:08:45.679Z,3.38
2022-09-12T09:11:31.954Z,3.15
2022-09-12T09:14:29.312Z,3.85
2022-09-12T09:16:57.958Z,3.55
2022-09-12T09:19:37.869Z,3.28
2022-09-12T09:22:16.729Z,3.13
2022-09-12T09:24:52.039Z,2.72
2022-09-12T09:27:40.862Z,3.13
2022-09-12T09:30:16.649Z,3.40
2022-09-12T09:32:47.743Z,3.03
2022-09-12T09:35:38.090Z,2.67
2022-09-12T09:38:13.918Z,2.97
2022-09-12T09:41:01.503Z,2.67
2022-09-12T09:43:29.107Z,2.47
2022-09-12T09:45:57.586Z,2.88
2022-09-12T09:48:31.387Z,3.03
2022-09-12T09:51:00.390Z,2.85
2022-09-12T09:53:36.892Z,2.55
2022-09-12T09:56:13.482Z,2.50
2022-09-12T09:58:40.572Z,2.58
2022-09-12T10:01:15.800Z,2.40
2022-09-12T10:03:52.048Z,2.45
2022-09-12T10:06:21.365Z,2.20
2022-09-12T10:08:49.228Z,2.08
2022-09-12T10:11:15.709Z,2.45
2022-09-12T10:13:54.617Z,2.55
2022-09-12T10:16:30.618Z,2.10
2022-09-12T10:19:02.537Z,2.33
2022-09-12T10:21:35.051Z,2.00
2022-09-12T10:24:24.500Z,1.90
2022-09-12T10:27:07.123Z,2.05
2022-09-12T10:29:39.628Z,2.00
2022-09-12T10:32:09.238Z,1.85
2022-09-12T10:34:45.154Z,1.80
2022-09-12T10:42:15.145Z,1.75
2022-09-12T10:44:54.009Z,1.95
2022-09-12T10:47:22.998Z,2.00
2022-09-12T10:49:51.181Z,1.90
2022-09-12T10:52:21.888Z,2.00
2022-09-12T10:54:48.458Z,1.98
2022-09-12T10:57:17.727Z,2.03
2022-09-12T11:00:14.767Z,1.67
2022-09-12T11:02:59.563Z,1.58
2022-09-12T11:06:01.545Z,1.95
2022-09-12T11:08:44.213Z,1.50
2022-09-12T11:11:13.883Z,1.67
2022-09-12T11:14:02.141Z,1.88
2022-09-12T11:16:59.689Z,1.83
2022-09-12T11:19:47.117Z,1.73
2022-09-12T11:22:40.754Z,1.50
2022-09-12T11:25:12.473Z,1.70
2022-09-12T11:27:48.185Z,1.95
2022-09-12T11:30:18.829Z,1.67
2022-09-12T11:32:50.341Z,1.80
2022-09-12T11:35:54.572Z,1.70
2022-09-12T11:39:01.842Z,1.83
2022-09-12T11:41:35.655Z,1.80
2022-09-12T11:44:23.531Z,1.85
2022-09-12T11:46:52.054Z,1.50
2022-09-12T11:49:44.033Z,1.70
2022-09-12T11:52:17.271Z,1.63
2022-09-12T11:55:03.925Z,1.70
2022-09-12T11:57:48.418Z,1.60
2022-09-12T12:00:20.773Z,1.70
2022-09-12T12:03:33.308Z,1.48
2022-09-12T12:06:04.159Z,1.40
2022-09-12T12:08:32.080Z,1.45
2022-09-12T12:11:03.412Z,1.77
2022-09-12T12:13:51.221Z,1.80
2022-09-12T12:16:29.674Z,1.40
2022-09-12T12:19:01.687Z,1.80
2022-09-12T12:21:36.219Z,1.98
2022-09-12T12:24:08.624Z,1.70
2022-09-12T12:27:01.816Z,1.50
2022-09-12T12:29:43.650Z,1.77
2022-09-12T12:32:10.439Z,1.40
2022-09-12T12:34:42.539Z,1.58
2022-09-12T12:37:21.052Z,1.60
2022-09-12T12:39:51.301Z,1.30
2022-09-12T12:42:33.099Z,2.17
2022-09-12T12:45:01.059Z,1.30
2022-09-12T12:47:34.042Z,1.60
2022-09-12T12:50:05.951Z,1.45
2022-09-12T12:52:43.999Z,1.40
2022-09-12T12:55:17.100Z,1.50
2022-09-12T12:57:55.603Z,1.48
2022-09-12T13:00:24.868Z,1.60
2022-09-12T13:03:28.877Z,1.42
2022-09-12T13:06:01.604Z,1.20
2022-09-12T13:08:34.521Z,2.13
2022-09-12T13:11:07.642Z,1.65
2022-09-12T13:14:12.129Z,1.50
2022-09-12T13:16:52.141Z,1.85
2022-09-12T13:19:30.504Z,1.67
2022-09-12T13:22:01.043Z,1.40
2022-09-12T13:24:27.633Z,1.33
2022-09-12T13:26:54.568Z,1.30
2022-09-12T13:29:23.414Z,1.45
2022-09-12T13:31:55.453Z,1.30
2022-09-12T13:35:00.925Z,1.67
2022-09-12T13:37:49.712Z,1.40
2022-09-12T13:40:32.396Z,1.30
2022-09-12T13:43:25.666Z,1.25
2022-09-12T13:45:52.814Z,1.30
2022-09-12T13:48:25.325Z,1.63
2022-09-12T13:50:55.373Z,1.50
2022-09-12T13:53:25.172Z,1.25
2022-09-12T13:55:55.833Z,1.40
2022-09-12T13:58:25.561Z,1.20
2022-09-12T14:01:01.994Z,1.40
2022-09-12T14:03:49.150Z,1.10
2022-09-12T14:08:44.363Z,1.10
2022-09-12T14:11:12.558Z,1.20
2022-09-12T14:13:39.282Z,1.15
2022-09-12T14:16:09.976Z,1.20
2022-09-12T14:18:38.634Z,1.20
2022-09-12T14:21:31.686Z,1.40
2022-09-12T14:23:59.466Z,1.33
2022-09-12T14:26:28.278Z,1.60
2022-09-12T14:28:54.849Z,1.35
2022-09-12T14:31:28.647Z,1.30
2022-09-12T14:34:08.832Z,1.00
2022-09-12T14:36:51.863Z,1.40
2022-09-12T14:39:33.427Z,1.00
2022-09-12T14:42:07.674Z,1.45
2022-09-12T14:44:35.642Z,1.33
2022-09-12T14:47:13.803Z,1.42
2022-09-12T14:49:41.159Z,1.17
2022-09-12T14:52:23.322Z,1.45
2022-09-12T14:55:16.654Z,1.20
2022-09-12T14:57:44.574Z,1.00
2022-09-12T15:00:14.530Z,1.30
2022-09-12T15:02:44.971Z,1.45
2022-09-12T15:05:11.356Z,1.33
2022-09-12T15:07:41.005Z,1.40
2022-09-12T15:10:25.258Z,1.60
2022-09-12T15:13:10.059Z,1.63
2022-09-12T15:15:37.677Z,1.40
2022-09-12T15:18:06.755Z,1.40
2022-09-12T15:20:38.709Z,1.92
2022-09-12T15:23:10.903Z,1.90
2022-09-12T15:25:37.331Z,1.60
2022-09-12T15:28:22.610Z,1.63
2022-09-12T15:30:52.072Z,1.90
2022-09-12T15:33:21.026Z,1.70
2022-09-12T15:35:47.532Z,1.60
2022-09-12T15:38:14.056Z,1.38
2022-09-12T15:40:40.834Z,1.30
2022-09-12T15:43:07.393Z,1.25
2022-09-12T15:45:35.433Z,1.20
2022-09-12T18:48:36.397Z,4.07
2022-09-12T18:51:11.136Z,4.38
2022-09-12T18:53:38.977Z,4.00
2022-09-12T18:56:10.221Z,4.43
2022-09-12T18:58:38.198Z,3.33
2022-09-12T19:01:14.317Z,3.83
2022-09-12T19:03:41.706Z,3.55
2022-09-12T19:06:17.547Z,3.10
2022-09-12T19:08:44.891Z,2.40
2022-09-12T19:11:12.673Z,3.10
2022-09-12T19:13:43.166Z,2.70
2022-09-12T19:16:11.107Z,2.65
2022-09-12T19:18:39.778Z,2.25
2022-09-12T19:21:08.180Z,2.80
2022-09-12T19:23:36.080Z,2.47
2022-09-12T19:26:05.712Z,2.35
2022-09-12T19:28:33.325Z,2.88
2022-09-12T19:30:59.867Z,3.10
2022-09-12T19:33:26.362Z,2.97
2022-09-12T19:38:19.444Z,3.63
2022-09-12T19:40:55.928Z,2.33
2022-09-12T19:43:22.361Z,2.88
2022-09-12T19:48:15.282Z,2.70
2022-09-12T19:50:41.727Z,2.95
2022-09-12T19:55:35.910Z,2.80
2022-09-12T19:58:02.989Z,2.90
2022-09-12T20:00:29.670Z,2.30
2022-09-12T20:02:56.108Z,2.60
2022-09-12T20:07:48.951Z,2.30
2022-09-12T20:12:42.075Z,2.20
2022-09-12T20:15:09.604Z,2.00
2022-09-12T20:17:36.164Z,2.75
2022-09-12T20:20:02.718Z,2.25
2022-09-12T20:22:29.226Z,1.70
2022-09-12T20:27:22.055Z,2.05
2022-09-12T20:32:14.877Z,2.10
2022-09-12T20:37:07.767Z,1.85
2022-09-12T20:42:00.884Z,2.30
2022-09-12T20:44:27.646Z,2.60
2022-09-12T20:46:54.140Z,2.13
2022-09-12T20:51:48.379Z,2.38
2022-09-12T20:54:14.933Z,3.10
2022-09-12T20:59:16.775Z,2.80
2022-09-12T21:01:44.149Z,2.80
2022-09-12T21:04:14.389Z,2.70
2022-09-12T21:06:41.605Z,2.47
2022-09-12T21:11:34.497Z,1.98
2022-09-12T21:14:00.916Z,2.55
2022-09-12T21:18:57.882Z,1.83
2022-09-12T21:21:25.538Z,2.10
2022-09-12T21:23:52.053Z,2.40
2022-09-12T21:26:18.655Z,2.20
2022-09-12T21:28:45.085Z,1.90
2022-09-12T21:33:38.063Z,2.13
2022-09-12T21:38:32.392Z,1.77
2022-09-12T21:41:28.819Z,2.00
2022-09-12T21:43:55.267Z,1.75
2022-09-12T21:48:48.247Z,1.95
2022-09-12T21:51:14.659Z,1.90
2022-09-12T21:56:08.543Z,2.20
2022-09-12T21:58:36.064Z,1.90
2022-09-12T22:01:02.878Z,1.95
2022-09-12T22:03:29.619Z,1.83
2022-09-12T22:06:01.545Z,1.80
2022-09-12T22:08:29.678Z,2.20
2022-09-12T22:11:02.077Z,2.00
2022-09-12T22:13:32.490Z,2.00
2022-09-12T22:16:00.418Z,1.90
2022-09-12T22:18:26.923Z,2.05
2022-09-12T22:23:45.177Z,2.00
2022-09-12T22:26:12.116Z,2.03
2022-09-12T22:28:38.532Z,1.90
2022-09-12T22:33:33.083Z,1.95
2022-09-12T22:38:26.065Z,2.30
2022-09-12T22:43:18.856Z,1.73
2022-09-12T22:48:11.691Z,2.30
2022-09-12T22:53:04.910Z,2.20
2022-09-12T22:57:57.787Z,2.20
2022-09-12T23:02:50.780Z,1.90
2022-09-12T23:05:17.249Z,2.00
2022-09-12T23:10:10.682Z,1.80
2022-09-12T23:12:37.116Z,1.92
2022-09-12T23:17:30.241Z,2.20
2022-09-12T23:22:22.974Z,2.10
2022-09-12T23:27:15.788Z,1.90
2022-09-12T23:32:08.532Z,2.38
2022-09-12T23:37:01.350Z,2.40
2022-09-12T23:41:54.223Z,2.25
2022-09-12T23:46:47.032Z,2.20
2022-09-12T23:51:39.808Z,2.33
2022-09-12T23:56:32.644Z,2.17
